createdAt,value
2017-10-11T00:06:28.329Z,2.95
2017-10-11T00:16:02.808Z,2.95
2017-10-11T00:25:34.134Z,2.95
2017-10-11T00:35:13.716Z,2.95
2017-10-11T00:44:48.774Z,2.95
2017-10-11T00:54:25.605Z,2.95
2017-10-11T01:03:59.270Z,2.94
2017-10-11T01:13:33.944Z,2.94
2017-10-11T01:23:10.680Z,2.94
2017-10-11T01:32:46.339Z,2.94
2017-10-11T01:42:19.980Z,2.94
2017-10-11T01:51:55.842Z,2.94
2017-10-11T02:01:30.652Z,2.94
2017-10-11T02:11:05.270Z,2.94
2017-10-11T02:20:40.212Z,2.94
2017-10-11T02:30:16.134Z,2.94
2017-10-11T02:39:49.023Z,2.94
2017-10-11T02:49:26.002Z,2.94
2017-10-11T02:58:58.998Z,2.94
2017-10-11T03:08:33.185Z,2.94
2017-10-11T03:18:16.348Z,2.94
2017-10-11T03:27:49.390Z,2.94
2017-10-11T03:37:24.470Z,2.94
2017-10-11T03:47:02.088Z,2.94
2017-10-11T03:56:42.477Z,2.94
2017-10-11T04:06:13.875Z,2.93
2017-10-11T04:15:48.617Z,2.93
2017-10-11T04:25:23.140Z,2.93
2017-10-11T04:34:54.606Z,2.93
2017-10-11T04:44:31.572Z,2.94
2017-10-11T04:54:08.895Z,2.93
2017-10-11T05:03:46.068Z,2.93
2017-10-11T05:13:24.258Z,2.93
2017-10-11T05:23:00.524Z,2.93
2017-10-11T05:32:38.529Z,2.93
2017-10-11T05:42:15.707Z,2.93
2017-10-11T05:51:53.058Z,2.94
2017-10-11T06:01:35.663Z,2.93
2017-10-11T06:11:07.040Z,2.94
2017-10-11T06:20:44.542Z,2.93
2017-10-11T06:30:22.029Z,2.94
2017-10-11T06:40:00.097Z,2.94
2017-10-11T06:49:38.457Z,2.94
2017-10-11T06:59:16.217Z,2.94
2017-10-11T07:08:53.717Z,2.94
2017-10-11T07:18:32.703Z,2.94
2017-10-11T07:28:11.688Z,2.94
2017-10-11T07:37:49.942Z,2.95
2017-10-11T07:47:28.062Z,2.95
2017-10-11T07:57:09.742Z,2.95
2017-10-11T08:06:46.793Z,2.95
2017-10-11T08:16:19.122Z,2.95
2017-10-11T08:26:01.083Z,2.95
2017-10-11T08:35:37.471Z,2.95
2017-10-11T08:45:13.870Z,2.95
2017-10-11T08:54:45.950Z,2.96
2017-10-11T09:04:25.300Z,2.96
2017-10-11T09:14:03.376Z,2.96
2017-10-11T09:23:50.824Z,2.96
2017-10-11T09:33:19.122Z,2.96
2017-10-11T09:42:57.501Z,2.96
2017-10-11T09:52:35.761Z,2.96
2017-10-11T10:02:14.156Z,2.96
2017-10-11T10:11:52.742Z,2.96
2017-10-11T10:21:36.415Z,2.96
2017-10-11T10:31:08.508Z,2.96
2017-10-11T10:40:50.618Z,2.96
2017-10-11T10:50:23.081Z,2.97
2017-10-11T11:00:01.889Z,2.97
2017-10-11T11:09:40.154Z,2.97
2017-10-11T11:19:18.203Z,2.97
2017-10-11T11:28:56.083Z,2.97
2017-10-11T11:38:38.085Z,2.98
2017-10-11T11:48:10.863Z,2.97
2017-10-11T11:57:50.386Z,2.97
2017-10-11T12:07:28.182Z,2.97
2017-10-11T12:17:06.292Z,2.97
2017-10-11T12:26:44.476Z,2.97
2017-10-11T12:36:23.082Z,2.97
2017-10-11T12:46:01.527Z,2.98
2017-10-11T12:55:40.331Z,2.98
2017-10-11T13:05:18.334Z,2.97
2017-10-11T13:14:57.649Z,2.97
2017-10-11T13:24:37.548Z,2.97
2017-10-11T13:34:16.347Z,2.98
2017-10-11T13:43:52.698Z,2.97
2017-10-11T13:53:29.710Z,2.97
2017-10-11T14:03:08.912Z,2.97
2017-10-11T14:12:44.943Z,2.97
2017-10-11T14:22:22.122Z,2.97
2017-10-11T14:31:59.090Z,2.96
2017-10-11T14:41:36.204Z,2.96
2017-10-11T14:51:12.836Z,2.96
2017-10-11T15:00:50.532Z,2.96
2017-10-11T15:10:28.583Z,2.96
2017-10-11T15:20:05.317Z,2.96
2017-10-11T15:29:42.136Z,2.96
2017-10-11T15:39:19.028Z,2.96
2017-10-11T15:48:55.336Z,2.96
2017-10-11T15:58:32.168Z,2.96
2017-10-11T16:08:08.723Z,2.95
2017-10-11T16:17:44.900Z,2.95
2017-10-11T16:27:21.228Z,2.95
2017-10-11T16:36:58.127Z,2.95
2017-10-11T16:46:38.897Z,2.95
2017-10-11T16:56:10.029Z,2.94
2017-10-11T17:05:50.616Z,2.94
2017-10-11T17:15:21.832Z,2.94
2017-10-11T17:24:58.600Z,2.94
2017-10-11T17:34:39.871Z,2.94
2017-10-11T17:44:15.086Z,2.94
2017-10-11T17:53:46.037Z,2.94
2017-10-11T18:03:22.891Z,2.94
2017-10-11T18:13:03.405Z,2.94
2017-10-11T18:22:35.160Z,2.94
2017-10-11T18:32:15.728Z,2.94
2017-10-11T18:41:47.704Z,2.93
2017-10-11T18:51:28.715Z,2.93
2017-10-11T19:01:00.098Z,2.93
2017-10-11T19:10:40.741Z,2.93
2017-10-11T19:20:12.698Z,2.93
2017-10-11T19:29:49.760Z,2.93
2017-10-11T19:39:27.078Z,2.93
2017-10-11T19:49:04.642Z,2.93
2017-10-11T19:58:45.372Z,2.93
2017-10-11T20:08:21.787Z,2.93
2017-10-11T20:17:55.971Z,2.92
2017-10-11T20:27:30.977Z,2.92
2017-10-11T20:37:01.881Z,2.92
2017-10-11T20:46:39.108Z,2.92
2017-10-11T20:56:17.250Z,2.92
2017-10-11T21:05:58.367Z,2.92
2017-10-11T21:15:29.954Z,2.92
2017-10-11T21:25:10.950Z,2.92
2017-10-11T21:34:46.627Z,2.92
2017-10-11T21:44:22.116Z,2.92
2017-10-11T21:53:57.426Z,2.92
2017-10-11T22:03:28.702Z,2.91
2017-10-11T22:13:09.759Z,2.91
2017-10-11T22:22:40.803Z,2.91
2017-10-11T22:32:22.026Z,2.91
2017-10-11T22:41:57.096Z,2.91
2017-10-11T22:51:28.382Z,2.91
2017-10-11T23:01:04.844Z,2.91
2017-10-11T23:10:47.147Z,2.91
2017-10-11T23:20:18.523Z,2.91
2017-10-11T23:29:59.687Z,2.91
2017-10-11T23:39:31.067Z,2.91
2017-10-11T23:49:08.179Z,2.91
2017-10-11T23:58:48.936Z,2.91
